Aérodrome :
LOGIN :

S'inscrire | Disclaimer

   EN    FR    IT 

 










Légende :    VFR   VFR Marginal   IFR   IFR Intensif   IFR Très Intensif
Visi : 
Plafond : 
>= 8 km
>= 3000ft
5 à 8 km
1000 à 3000 ft
1500m à 5 km
500 à 1000 ft
800 à 1500m
200 à 500 ft
< 800m
< 200 ft
Symboles :   Orages  Brouillard  Fortes neiges  Fortes précipitations  Vent > 20 kt
SIGMETs :   Divers  Orages  Givrage  Turbulence  Onde Orograph.  Cendres Volcan.






- Altitude de l'aérodrome : 598 ft
- Code IATA : BQH


EGKB - Biggin Hill

DERNIER METAR :
  • 121320Z 18020KT 3000 RADZ BR BKN005 07/07 Q0985

METARs EXPIRÉS :
  • 121250Z 18022KT 2000 RADZ BR BKN005 07/07 Q0986
  • 121220Z 17023G34KT 3000 RADZ BR BKN005 07/07 Q0987
  • 121150Z 17021KT 6000 -RADZ BKN005 07/06 Q0988
  • 121120Z 16020KT 3500 -RADZ BKN006 06/06 Q0989
  • 121050Z 17019KT 4500 -RADZ BKN005 06/06 Q0990

TAF TAF EGKB
Valide du 12 à 12h jusqu'au 12 à 21h UTC


121058Z 1212/1221 16014KT 9999 BKN020
TEMPO 1212/1218 8000 RA BKN009
PROB40
TEMPO 1212/1217 15018G28KT 4000 RADZ BKN004
BECMG 1216/1218 23008KT
PROB30
TEMPO 1218/1220 7000 RA BKN009



MET'MAP, la Météo Aéronautique d'un coup d'oeil ! - Copyright ORBIFLY Décembre 2007 - Disclaimer

ORBIFLY MET'MAP TEAM :

Programmation & Développement : Alexandra Zaïnal
Sur une idée originale de : Baudouin d'Aumeries
Assistance à la programmation : Marc-Olivier Méhu
Soutien technique & logistique : Manuel Goepfert

Contact : metmap@orbifly.com




SOURCES & CREDITS :

   NOAA